createdAt,value
2018-06-03T00:00:29.830Z,6.90
2018-06-03T00:01:29.829Z,6.80
2018-06-03T00:02:29.824Z,6.70
2018-06-03T00:03:29.827Z,7.10
2018-06-03T00:04:29.818Z,7.10
2018-06-03T00:05:29.816Z,7.10
2018-06-03T00:06:29.812Z,6.90
2018-06-03T00:07:29.833Z,6.70
2018-06-03T00:08:29.806Z,6.50
2018-06-03T00:09:29.804Z,6.70
2018-06-03T00:10:29.801Z,6.70
2018-06-03T00:11:29.804Z,6.60
2018-06-03T00:12:29.792Z,7.10
2018-06-03T00:13:29.788Z,6.70
2018-06-03T00:14:29.788Z,6.80
2018-06-03T00:15:29.784Z,6.40
2018-06-03T00:16:29.781Z,7.00
2018-06-03T00:17:29.785Z,6.50
2018-06-03T00:18:29.775Z,6.60
2018-06-03T00:19:29.771Z,6.80
2018-06-03T00:20:29.771Z,6.70
2018-06-03T00:21:29.765Z,6.70
2018-06-03T00:22:29.764Z,6.60
2018-06-03T00:23:29.760Z,6.50
2018-06-03T00:24:29.756Z,6.60
2018-06-03T00:25:29.753Z,7.00
2018-06-03T00:26:29.750Z,6.30
2018-06-03T00:27:29.750Z,6.80
2018-06-03T00:28:29.748Z,7.20
2018-06-03T00:29:29.744Z,7.00
2018-06-03T00:30:29.741Z,7.20
2018-06-03T00:31:29.737Z,7.20
2018-06-03T00:32:29.729Z,7.40
2018-06-03T00:33:29.730Z,7.00
2018-06-03T00:34:29.722Z,7.40
2018-06-03T00:35:29.720Z,6.90
2018-06-03T00:36:29.719Z,7.30
2018-06-03T00:37:29.713Z,7.30
2018-06-03T00:38:29.710Z,7.40
2018-06-03T00:39:29.709Z,7.40
2018-06-03T00:40:29.738Z,7.20
2018-06-03T00:41:29.704Z,7.30
2018-06-03T00:42:29.693Z,7.40
2018-06-03T00:43:29.731Z,7.70
2018-06-03T00:44:29.710Z,7.40
2018-06-03T00:45:29.689Z,7.50
2018-06-03T00:46:29.691Z,7.50
2018-06-03T00:47:29.681Z,7.20
2018-06-03T00:48:29.678Z,7.40
2018-06-03T00:49:29.677Z,7.60
2018-06-03T00:50:29.678Z,7.40
2018-06-03T00:51:29.668Z,7.10
2018-06-03T00:52:29.664Z,7.30
2018-06-03T00:53:29.663Z,7.30
2018-06-03T00:54:29.663Z,7.00
2018-06-03T00:55:29.662Z,7.00
2018-06-03T00:56:29.652Z,7.00
2018-06-03T00:57:29.650Z,7.00
2018-06-03T00:58:29.654Z,6.90
2018-06-03T00:59:29.644Z,6.90
2018-06-03T01:00:29.645Z,7.30
2018-06-03T01:01:29.663Z,6.70
2018-06-03T01:02:29.630Z,7.20
2018-06-03T01:03:29.631Z,7.40
2018-06-03T01:04:29.617Z,7.40
2018-06-03T01:05:29.626Z,7.10
2018-06-03T01:06:29.623Z,7.40
2018-06-03T01:07:29.620Z,7.60
2018-06-03T01:08:29.609Z,7.50
2018-06-03T01:09:29.608Z,7.60
2018-06-03T01:10:29.602Z,7.10
2018-06-03T01:11:29.613Z,7.30
2018-06-03T01:12:29.596Z,7.40
2018-06-03T01:13:29.591Z,7.40
2018-06-03T01:14:29.593Z,7.30
2018-06-03T01:15:29.591Z,7.40
2018-06-03T01:16:29.581Z,7.80
2018-06-03T01:17:29.581Z,7.80
2018-06-03T01:18:29.576Z,7.80
2018-06-03T01:19:29.574Z,8.10
2018-06-03T01:20:29.570Z,7.50
2018-06-03T01:21:29.566Z,8.00
2018-06-03T01:22:29.567Z,7.30
2018-06-03T01:23:29.568Z,7.60
2018-06-03T01:24:29.567Z,7.90
2018-06-03T01:25:29.554Z,8.20
2018-06-03T01:26:29.547Z,7.40
2018-06-03T01:27:29.545Z,7.60
2018-06-03T01:28:29.546Z,8.30
2018-06-03T01:29:29.544Z,7.60
2018-06-03T01:30:29.536Z,8.00
2018-06-03T02:02:59.466Z,6.40
2018-06-03T02:03:59.439Z,9.20
2018-06-03T02:05:52.361Z,9.30
2018-06-03T02:06:52.335Z,9.60
2018-06-03T02:08:45.296Z,9.70
2018-06-03T02:09:45.275Z,9.40
2018-06-03T02:11:38.217Z,9.70
2018-06-03T02:12:38.173Z,9.40
2018-06-03T02:14:31.127Z,10.00
2018-06-03T02:15:31.069Z,10.10
2018-06-03T02:17:23.951Z,9.30
2018-06-03T02:18:23.940Z,9.70
2018-06-03T02:20:17.871Z,9.40
2018-06-03T02:21:17.848Z,9.60
2018-06-03T02:23:10.813Z,9.50
2018-06-03T02:24:10.792Z,9.60
2018-06-03T02:26:03.781Z,9.30
2018-06-03T02:27:03.752Z,9.40
2018-06-03T02:28:56.657Z,9.30
2018-06-03T02:29:56.651Z,9.20
2018-06-03T02:31:49.561Z,9.70
2018-06-03T02:32:49.537Z,9.40
2018-06-03T02:34:42.484Z,9.10
2018-06-03T02:35:42.467Z,9.50
2018-06-03T02:37:35.377Z,9.10
2018-06-03T02:38:35.346Z,9.60
2018-06-03T02:41:19.352Z,9.30
2018-06-03T02:42:19.319Z,9.50
2018-06-03T02:44:12.242Z,9.20
2018-06-03T02:45:12.228Z,9.60
2018-06-03T02:47:05.181Z,9.30
2018-06-03T02:48:05.155Z,9.50
2018-06-03T02:49:58.057Z,9.10
2018-06-03T02:50:58.050Z,9.10
2018-06-03T02:52:51.007Z,8.50
2018-06-03T02:53:50.975Z,8.90
2018-06-03T02:55:44.001Z,9.20
2018-06-03T02:56:43.959Z,9.30
2018-06-03T02:58:37.003Z,9.70
2018-06-03T02:59:36.972Z,10.00
2018-06-03T03:01:29.926Z,9.50
2018-06-03T03:02:29.905Z,9.50
2018-06-03T03:04:22.915Z,9.80
2018-06-03T03:05:22.889Z,9.90
2018-06-03T03:07:15.819Z,9.50
2018-06-03T03:08:15.793Z,9.60
2018-06-03T03:10:08.711Z,10.30
2018-06-03T03:11:08.705Z,10.20
2018-06-03T03:13:01.630Z,10.20
2018-06-03T03:14:01.604Z,9.90
2018-06-03T03:15:54.560Z,10.10
2018-06-03T03:16:54.530Z,9.40
2018-06-03T03:18:47.497Z,10.30
2018-06-03T03:19:47.492Z,10.20
2018-06-03T03:21:40.499Z,9.70
2018-06-03T03:22:40.480Z,10.30
2018-06-03T03:24:33.509Z,9.90
2018-06-03T03:25:33.490Z,10.40
2018-06-03T03:27:26.416Z,10.40
2018-06-03T03:28:26.381Z,10.20
2018-06-03T03:30:19.327Z,10.30
2018-06-03T03:31:19.310Z,10.10
2018-06-03T03:33:12.214Z,9.60
2018-06-03T03:34:12.189Z,10.00
2018-06-03T03:36:05.161Z,9.70
2018-06-03T03:37:05.149Z,9.90
2018-06-03T03:38:58.061Z,9.40
2018-06-03T03:39:58.033Z,9.50
2018-06-03T03:41:51.038Z,9.50
2018-06-03T03:42:51.018Z,9.30
2018-06-03T03:44:44.011Z,9.00
2018-06-03T03:45:44.005Z,9.60
2018-06-03T03:47:36.998Z,8.50
2018-06-03T03:48:36.965Z,8.70
2018-06-03T03:50:29.869Z,9.10
2018-06-03T03:51:29.860Z,9.20
2018-06-03T03:53:22.797Z,9.00
2018-06-03T03:54:22.770Z,9.20
2018-06-03T03:56:15.736Z,8.80
2018-06-03T03:57:15.719Z,9.10
2018-06-03T03:59:59.739Z,8.70
2018-06-03T04:00:59.721Z,8.80
2018-06-03T04:02:52.651Z,8.60
2018-06-03T04:03:52.628Z,8.50
2018-06-03T04:05:45.534Z,8.20
2018-06-03T04:06:45.518Z,8.00
2018-06-03T04:09:29.537Z,7.70
2018-06-03T04:10:29.517Z,8.00
2018-06-03T04:12:22.417Z,7.80
2018-06-03T04:13:22.394Z,8.00
2018-06-03T04:15:15.309Z,8.40
2018-06-03T04:16:15.288Z,8.30
2018-06-03T04:18:08.312Z,8.30
2018-06-03T04:19:08.294Z,8.80
2018-06-03T04:21:01.219Z,8.50
2018-06-03T04:22:01.205Z,8.20
2018-06-03T04:23:54.175Z,8.30
2018-06-03T04:24:54.130Z,8.70
2018-06-03T04:26:47.021Z,8.20
2018-06-03T04:27:47.001Z,8.80
2018-06-03T04:29:39.907Z,10.20
2018-06-03T04:30:39.887Z,9.70
2018-06-03T04:32:32.851Z,8.00
2018-06-03T04:33:32.833Z,8.80
2018-06-03T04:35:25.774Z,8.20
2018-06-03T04:36:25.761Z,8.10
2018-06-03T04:38:18.681Z,8.20
2018-06-03T04:39:18.669Z,7.80
2018-06-03T04:41:11.591Z,8.20
2018-06-03T04:42:11.580Z,7.70
2018-06-03T04:44:04.558Z,8.20
2018-06-03T04:45:04.539Z,7.70
2018-06-03T04:46:57.546Z,7.60
2018-06-03T04:47:57.537Z,7.50
2018-06-03T04:49:50.478Z,7.50
2018-06-03T04:50:50.456Z,7.40
2018-06-03T04:52:43.423Z,7.30
2018-06-03T04:53:43.417Z,6.90
2018-06-03T04:55:36.356Z,6.80
2018-06-03T04:56:36.340Z,6.70
2018-06-03T04:58:29.359Z,6.60
2018-06-03T04:59:29.332Z,6.70
2018-06-03T05:01:22.312Z,6.80
2018-06-03T05:02:22.302Z,6.90
2018-06-03T05:04:15.271Z,6.90
2018-06-03T05:05:15.252Z,6.70
2018-06-03T05:07:08.226Z,6.50
2018-06-03T05:08:08.211Z,6.30
2018-06-03T05:10:01.183Z,6.60
2018-06-03T05:11:01.164Z,7.10
2018-06-03T05:12:54.114Z,6.70
2018-06-03T05:13:54.107Z,6.50
2018-06-03T05:15:47.083Z,7.10
2018-06-03T05:16:47.052Z,6.70
2018-06-03T05:18:41.073Z,7.10
2018-06-03T05:19:41.048Z,7.10
2018-06-03T05:21:33.954Z,6.70
2018-06-03T05:22:33.955Z,6.50
2018-06-03T05:24:26.975Z,6.90
2018-06-03T05:25:26.959Z,6.80
2018-06-03T05:27:19.859Z,7.10
2018-06-03T05:28:19.852Z,7.10
2018-06-03T05:30:12.859Z,6.90
2018-06-03T05:31:12.842Z,7.10
2018-06-03T05:33:05.779Z,6.80
2018-06-03T05:34:05.767Z,6.90
2018-06-03T05:35:58.802Z,6.70
2018-06-03T05:36:58.777Z,7.00
2018-06-03T05:38:51.710Z,6.70
2018-06-03T05:39:51.685Z,7.00
2018-06-03T05:41:44.623Z,7.00
2018-06-03T05:42:44.608Z,7.00
2018-06-03T05:44:37.561Z,7.40
2018-06-03T05:45:37.532Z,7.30
2018-06-03T05:47:30.485Z,7.40
2018-06-03T05:48:30.475Z,7.10
2018-06-03T05:50:23.470Z,7.60
2018-06-03T05:51:23.451Z,7.10
2018-06-03T05:53:16.359Z,7.50
2018-06-03T05:54:16.347Z,6.90
2018-06-03T05:56:09.282Z,7.10
2018-06-03T05:57:09.255Z,7.40
2018-06-03T05:59:02.238Z,7.00
2018-06-03T06:00:02.207Z,7.40
2018-06-03T06:01:55.134Z,7.40
2018-06-03T06:02:55.110Z,7.10
2018-06-03T06:04:48.054Z,6.70
2018-06-03T06:05:48.044Z,7.10
2018-06-03T06:07:40.979Z,7.30
2018-06-03T06:08:40.969Z,7.00
2018-06-03T06:10:33.884Z,7.10
2018-06-03T06:11:33.866Z,7.00
2018-06-03T06:13:26.843Z,7.20
2018-06-03T06:14:26.836Z,7.40
2018-06-03T06:16:19.753Z,6.80
2018-06-03T06:17:19.749Z,7.20
2018-06-03T06:19:12.737Z,6.90
2018-06-03T06:20:12.761Z,6.60
2018-06-03T06:22:05.661Z,7.00
2018-06-03T06:23:05.643Z,7.20
2018-06-03T06:24:58.569Z,6.80
2018-06-03T06:25:58.545Z,7.30
2018-06-03T06:27:51.511Z,6.80
2018-06-03T06:28:51.498Z,7.10
2018-06-03T06:30:44.407Z,6.90
2018-06-03T06:31:44.392Z,7.00
2018-06-03T06:33:37.347Z,6.90
2018-06-03T06:34:37.339Z,6.80
2018-06-03T06:36:30.359Z,6.70
2018-06-03T06:37:30.341Z,6.90
2018-06-03T06:39:23.349Z,7.00
2018-06-03T06:40:23.335Z,6.50
2018-06-03T06:42:16.286Z,6.70
2018-06-03T06:43:16.260Z,6.40
2018-06-03T06:45:09.185Z,6.70
2018-06-03T06:46:09.171Z,6.50
2018-06-03T06:48:02.113Z,6.10
2018-06-03T06:49:02.105Z,6.00
2018-06-03T06:50:55.069Z,6.50
2018-06-03T06:51:55.061Z,6.50
2018-06-03T06:53:48.038Z,6.40
2018-06-03T06:54:48.034Z,6.60
2018-06-03T06:56:41.995Z,6.40
2018-06-03T06:57:40.921Z,6.70
2018-06-03T06:59:33.863Z,6.20
2018-06-03T07:00:33.846Z,6.20
2018-06-03T07:02:26.818Z,6.20
2018-06-03T07:03:26.796Z,6.00
2018-06-03T07:05:19.833Z,5.90
2018-06-03T07:06:19.806Z,5.80
2018-06-03T07:08:12.808Z,6.10
2018-06-03T07:09:12.809Z,5.40
2018-06-03T07:11:05.829Z,5.50
2018-06-03T07:12:05.810Z,5.90
2018-06-03T07:13:58.830Z,5.20
2018-06-03T07:14:58.830Z,5.40
2018-06-03T07:16:51.893Z,5.20
2018-06-03T07:17:51.865Z,4.90
2018-06-03T07:19:44.823Z,4.90
2018-06-03T07:20:44.821Z,5.20
2018-06-03T07:22:37.806Z,4.80
2018-06-03T07:23:37.804Z,4.30
2018-06-03T07:25:30.838Z,4.70
2018-06-03T07:26:30.841Z,5.20
2018-06-03T07:28:23.849Z,4.60
2018-06-03T07:29:23.843Z,4.90
2018-06-03T07:31:16.837Z,4.70
2018-06-03T07:32:16.829Z,4.70
2018-06-03T07:34:09.766Z,4.30
2018-06-03T07:35:09.770Z,4.80
2018-06-03T07:37:02.772Z,4.40
2018-06-03T07:38:02.767Z,4.40
2018-06-03T07:39:55.735Z,4.10
2018-06-03T07:40:55.738Z,4.00
2018-06-03T07:42:48.703Z,3.80
2018-06-03T07:43:48.700Z,4.00
2018-06-03T07:45:41.655Z,3.80
2018-06-03T07:46:41.655Z,4.00
2018-06-03T07:48:34.655Z,3.40
2018-06-03T07:49:34.651Z,3.90
2018-06-03T07:51:27.659Z,3.30
2018-06-03T07:52:27.656Z,3.60
2018-06-03T07:54:20.650Z,3.70
2018-06-03T07:55:20.661Z,3.70
2018-06-03T07:57:13.671Z,3.50
2018-06-03T07:58:13.664Z,3.40
2018-06-03T08:00:06.651Z,3.50
2018-06-03T08:01:06.646Z,3.70
2018-06-03T08:02:59.671Z,3.40
2018-06-03T08:03:59.660Z,3.30
2018-06-03T08:05:52.655Z,3.20
2018-06-03T08:06:52.646Z,3.40
2018-06-03T08:08:45.659Z,3.50
2018-06-03T08:09:45.655Z,3.20
2018-06-03T08:11:38.692Z,3.30
2018-06-03T08:12:38.688Z,3.30
2018-06-03T08:14:31.639Z,3.30
2018-06-03T08:15:31.649Z,3.30
2018-06-03T08:17:24.711Z,3.20
2018-06-03T08:18:24.699Z,3.20
2018-06-03T08:20:17.686Z,3.10
2018-06-03T08:21:17.700Z,3.40
2018-06-03T08:23:10.696Z,3.20
2018-06-03T08:24:10.696Z,3.10
2018-06-03T08:26:03.678Z,3.60
2018-06-03T08:27:03.662Z,3.80
2018-06-03T08:28:56.701Z,3.70
2018-06-03T08:29:56.697Z,3.80
2018-06-03T08:31:49.709Z,3.70
2018-06-03T08:32:49.703Z,3.30
2018-06-03T08:34:42.698Z,3.10
2018-06-03T08:35:42.704Z,3.60
2018-06-03T08:37:35.673Z,3.50
2018-06-03T08:38:35.669Z,3.80
2018-06-03T08:40:28.695Z,3.70
2018-06-03T08:41:28.705Z,3.40
2018-06-03T08:43:21.664Z,3.60
2018-06-03T08:44:21.662Z,3.40
2018-06-03T08:46:14.657Z,3.10
2018-06-03T08:47:14.660Z,3.60
2018-06-03T08:48:14.682Z,3.40
2018-06-03T08:49:14.700Z,3.70
2018-06-03T08:50:14.716Z,3.70
2018-06-03T08:51:14.732Z,3.50
2018-06-03T08:52:14.753Z,3.80
2018-06-03T08:53:14.768Z,3.30
2018-06-03T08:54:14.785Z,3.40
2018-06-03T08:55:14.809Z,3.30
2018-06-03T08:56:14.822Z,3.20
2018-06-03T08:57:14.915Z,3.20
2018-06-03T08:58:14.862Z,3.40
2018-06-03T08:59:14.871Z,3.40
2018-06-03T09:00:14.891Z,3.20
2018-06-03T09:01:14.912Z,3.30
2018-06-03T09:02:14.936Z,3.30
2018-06-03T09:03:14.954Z,3.30
2018-06-03T09:04:14.971Z,3.30
2018-06-03T09:05:14.981Z,3.40
2018-06-03T09:06:15.010Z,3.60
2018-06-03T09:07:15.026Z,3.60
2018-06-03T09:08:15.049Z,3.20
2018-06-03T09:09:15.052Z,3.10
2018-06-03T09:10:15.085Z,3.20
2018-06-03T09:11:15.112Z,3.20
2018-06-03T09:12:15.120Z,3.20
2018-06-03T09:13:15.138Z,3.00
2018-06-03T09:14:15.160Z,3.10
2018-06-03T09:15:15.178Z,3.00
2018-06-03T09:16:15.201Z,3.20
2018-06-03T09:17:15.219Z,3.10
2018-06-03T09:18:15.236Z,3.20
2018-06-03T09:19:15.271Z,3.10
2018-06-03T09:20:15.276Z,2.90
2018-06-03T09:21:15.288Z,3.50
2018-06-03T09:22:15.315Z,3.00
2018-06-03T09:23:15.337Z,2.90
2018-06-03T09:24:15.352Z,2.80
2018-06-03T09:25:15.370Z,2.80
2018-06-03T09:26:15.388Z,2.90
2018-06-03T09:27:15.413Z,2.70
2018-06-03T09:28:15.427Z,2.80
2018-06-03T09:29:15.445Z,2.70
2018-06-03T09:30:15.466Z,2.70
2018-06-03T09:31:15.481Z,2.60
2018-06-03T09:32:15.495Z,2.50
2018-06-03T09:33:15.529Z,2.60
2018-06-03T09:34:15.533Z,2.70
2018-06-03T09:35:15.556Z,2.60
2018-06-03T09:36:15.587Z,2.50
2018-06-03T09:37:15.588Z,2.80
2018-06-03T09:38:15.605Z,2.80
2018-06-03T09:39:15.615Z,2.90
2018-06-03T09:40:16.613Z,2.70
2018-06-03T09:41:15.658Z,2.60
2018-06-03T09:42:15.678Z,2.50
2018-06-03T09:43:15.693Z,2.90
2018-06-03T09:44:15.713Z,2.80
2018-06-03T09:45:15.725Z,2.60
2018-06-03T09:46:15.756Z,3.40
2018-06-03T09:47:15.757Z,3.30
2018-06-03T09:48:15.774Z,2.60
2018-06-03T09:49:15.785Z,2.40
2018-06-03T09:50:15.801Z,2.50
2018-06-03T09:51:15.826Z,3.00
2018-06-03T09:52:15.838Z,3.00
2018-06-03T09:53:15.936Z,2.80
2018-06-03T09:54:15.868Z,2.60
2018-06-03T09:55:15.886Z,2.40
2018-06-03T09:56:15.902Z,2.50
2018-06-03T09:57:15.922Z,2.80
2018-06-03T09:58:15.943Z,2.40
2018-06-03T09:59:15.944Z,2.60
2018-06-03T10:00:15.982Z,2.40
2018-06-03T10:01:15.975Z,2.40
2018-06-03T10:02:15.983Z,2.10
2018-06-03T10:03:16.005Z,2.30
2018-06-03T10:04:16.020Z,2.30
2018-06-03T10:05:16.035Z,2.20
2018-06-03T10:06:16.049Z,2.20
2018-06-03T10:07:16.057Z,2.30
2018-06-03T10:08:16.075Z,2.40
2018-06-03T10:09:17.043Z,2.30
2018-06-03T10:10:16.134Z,2.10
2018-06-03T10:11:16.118Z,2.30
2018-06-03T10:12:16.128Z,2.10
2018-06-03T10:13:16.154Z,2.20
2018-06-03T10:14:16.160Z,2.30
2018-06-03T10:15:16.170Z,2.40
2018-06-03T10:16:16.190Z,2.10
2018-06-03T10:17:16.209Z,2.30
2018-06-03T10:18:16.222Z,2.20
2018-06-03T10:19:16.238Z,2.30
2018-06-03T10:20:16.250Z,2.60
2018-06-03T10:21:16.271Z,2.50
2018-06-03T10:22:16.284Z,2.40
2018-06-03T10:23:16.310Z,2.30
2018-06-03T10:24:16.318Z,2.50
2018-06-03T10:25:16.331Z,2.40
2018-06-03T10:26:16.346Z,2.30
2018-06-03T10:27:16.360Z,2.30
2018-06-03T10:28:16.381Z,2.30
2018-06-03T10:29:16.402Z,2.30
2018-06-03T10:30:16.412Z,2.60
2018-06-03T10:31:16.426Z,2.40
2018-06-03T10:32:16.445Z,2.20
2018-06-03T10:33:16.459Z,3.20
2018-06-03T10:34:16.479Z,9.80
2018-06-03T10:35:16.495Z,22.90
2018-06-03T10:36:16.520Z,14.80
2018-06-03T10:37:16.545Z,7.60
2018-06-03T10:38:16.544Z,23.50
2018-06-03T10:39:16.557Z,7.00
2018-06-03T10:40:16.572Z,25.00
2018-06-03T10:41:16.603Z,29.90
2018-06-03T10:42:16.609Z,37.40
2018-06-03T10:43:16.628Z,11.90
2018-06-03T10:44:16.664Z,4.90
2018-06-03T10:45:16.672Z,19.60
2018-06-03T10:46:16.673Z,7.60
2018-06-03T10:47:16.685Z,5.00
2018-06-03T10:48:16.696Z,3.80
2018-06-03T10:49:16.710Z,3.80
2018-06-03T10:50:16.715Z,5.10
2018-06-03T10:51:16.728Z,4.40
2018-06-03T10:52:16.748Z,3.20
2018-06-03T10:53:16.760Z,3.30
2018-06-03T10:54:16.782Z,2.80
2018-06-03T10:55:16.807Z,4.80
2018-06-03T10:56:16.803Z,4.10
2018-06-03T10:57:16.851Z,6.20
2018-06-03T10:58:16.833Z,5.20
2018-06-03T10:59:16.839Z,5.80
2018-06-03T11:00:16.884Z,2.90
2018-06-03T11:01:16.885Z,3.80
2018-06-03T11:02:16.969Z,2.90
2018-06-03T11:03:16.884Z,2.60
2018-06-03T11:04:16.892Z,3.10
2018-06-03T11:05:16.909Z,3.00
2018-06-03T11:06:16.913Z,2.80
2018-06-03T11:07:16.940Z,2.70
2018-06-03T11:08:16.933Z,2.70
2018-06-03T11:09:16.941Z,2.70
2018-06-03T11:10:16.952Z,2.70
2018-06-03T11:11:16.961Z,2.90
2018-06-03T11:12:16.981Z,2.50
2018-06-03T11:13:16.994Z,2.60
2018-06-03T11:14:17.009Z,2.40
2018-06-03T11:15:17.016Z,2.50
2018-06-03T11:16:17.024Z,2.60
2018-06-03T11:17:17.055Z,2.50
2018-06-03T11:18:17.061Z,2.70
2018-06-03T11:19:17.060Z,2.50
2018-06-03T11:20:17.080Z,2.40
2018-06-03T11:21:17.080Z,2.30
2018-06-03T11:22:17.089Z,2.30
2018-06-03T11:23:17.099Z,2.40
2018-06-03T11:24:17.113Z,2.20
2018-06-03T11:25:17.126Z,2.50
2018-06-03T11:26:17.133Z,2.30
2018-06-03T11:27:17.166Z,2.20
2018-06-03T11:28:17.153Z,2.10
2018-06-03T11:29:17.171Z,2.60
2018-06-03T11:30:17.177Z,2.30
2018-06-03T11:31:17.184Z,2.40
2018-06-03T11:32:17.198Z,2.50
2018-06-03T11:33:17.209Z,2.50
2018-06-03T11:34:17.217Z,2.50
2018-06-03T11:35:17.223Z,2.60
2018-06-03T11:36:17.237Z,2.40
2018-06-03T11:37:17.239Z,2.50
2018-06-03T11:38:17.258Z,2.30
2018-06-03T11:39:17.265Z,2.20
2018-06-03T11:40:17.267Z,2.60
2018-06-03T11:41:17.288Z,2.20
2018-06-03T11:42:17.297Z,2.20
2018-06-03T11:43:17.308Z,2.60
2018-06-03T11:44:17.314Z,2.30
2018-06-03T11:45:17.327Z,2.30
2018-06-03T11:46:17.332Z,2.30
2018-06-03T11:47:17.364Z,2.30
2018-06-03T11:48:17.355Z,2.10
2018-06-03T11:49:17.363Z,2.40
2018-06-03T11:50:17.374Z,2.20
2018-06-03T11:51:17.394Z,2.40
2018-06-03T11:52:17.394Z,2.30
2018-06-03T11:53:17.402Z,2.20
2018-06-03T11:54:17.410Z,2.10
2018-06-03T11:55:17.428Z,2.00
2018-06-03T11:56:17.493Z,2.20
2018-06-03T11:57:17.464Z,2.30
2018-06-03T11:58:17.475Z,2.30
2018-06-03T11:59:17.463Z,2.10
2018-06-03T12:00:17.469Z,2.00
2018-06-03T12:01:17.488Z,2.20
2018-06-03T12:02:17.503Z,2.10
2018-06-03T12:03:17.546Z,2.10
2018-06-03T12:04:17.520Z,2.10
2018-06-03T12:05:17.526Z,2.20
2018-06-03T12:06:17.533Z,2.20
2018-06-03T12:07:17.562Z,2.00
2018-06-03T12:08:17.661Z,1.90
2018-06-03T12:09:17.584Z,2.20
2018-06-03T12:10:17.592Z,2.00
2018-06-03T12:11:17.601Z,1.90
2018-06-03T12:12:17.620Z,1.90
2018-06-03T12:13:17.631Z,2.00
2018-06-03T12:14:17.635Z,2.20
2018-06-03T12:15:17.651Z,2.00
2018-06-03T12:16:17.687Z,1.90
2018-06-03T12:17:17.686Z,1.90
2018-06-03T12:18:17.710Z,2.00
2018-06-03T12:19:17.708Z,2.10
2018-06-03T12:20:17.719Z,2.10
2018-06-03T12:21:17.737Z,2.00
2018-06-03T12:22:17.755Z,2.10
2018-06-03T12:23:17.765Z,2.00
2018-06-03T12:24:17.772Z,2.20
2018-06-03T12:25:17.785Z,2.00
2018-06-03T12:26:17.798Z,2.00
2018-06-03T12:27:17.816Z,2.00
2018-06-03T12:28:17.846Z,2.00
2018-06-03T12:29:17.836Z,2.10
2018-06-03T12:30:17.851Z,2.10
2018-06-03T12:31:17.861Z,2.10
2018-06-03T12:32:17.875Z,2.20
2018-06-03T12:33:17.894Z,2.00
2018-06-03T12:34:17.903Z,2.00
2018-06-03T12:35:17.954Z,2.00
2018-06-03T12:36:17.941Z,2.20
2018-06-03T12:37:17.943Z,2.00
2018-06-03T12:38:17.950Z,1.90
2018-06-03T12:39:17.958Z,1.80
2018-06-03T12:40:17.969Z,1.90
2018-06-03T12:41:17.993Z,2.00
2018-06-03T12:42:18.006Z,2.00
2018-06-03T12:43:18.011Z,2.10
2018-06-03T12:44:18.020Z,2.20
2018-06-03T12:45:18.027Z,1.90
2018-06-03T12:46:18.039Z,2.10
2018-06-03T12:47:18.053Z,1.90
2018-06-03T12:48:18.064Z,2.10
2018-06-03T12:49:18.090Z,2.00
2018-06-03T12:50:18.080Z,2.20
2018-06-03T12:51:18.086Z,2.20
2018-06-03T12:52:18.096Z,2.10
2018-06-03T12:53:18.104Z,2.30
2018-06-03T12:54:18.108Z,2.30
2018-06-03T12:55:18.117Z,2.20
2018-06-03T12:56:18.127Z,2.30
2018-06-03T12:57:18.134Z,2.40
2018-06-03T12:58:18.140Z,2.30
2018-06-03T12:59:18.150Z,2.30
2018-06-03T13:00:18.152Z,2.30
2018-06-03T13:01:18.168Z,2.40
2018-06-03T13:02:18.166Z,2.50
2018-06-03T13:03:18.174Z,2.40
2018-06-03T13:04:18.180Z,2.30
2018-06-03T13:05:18.187Z,2.30
2018-06-03T13:06:18.238Z,2.20
2018-06-03T13:07:18.201Z,2.50
2018-06-03T13:08:18.211Z,2.40
2018-06-03T13:09:18.212Z,2.40
2018-06-03T13:10:18.221Z,2.30
2018-06-03T13:11:18.231Z,2.30
2018-06-03T13:12:18.235Z,2.50
2018-06-03T13:13:18.252Z,2.20
2018-06-03T13:14:18.246Z,2.30
2018-06-03T13:15:18.249Z,2.50
2018-06-03T13:16:18.255Z,2.40
2018-06-03T13:17:18.304Z,2.50
2018-06-03T13:18:18.273Z,2.40
2018-06-03T13:19:18.272Z,2.50
2018-06-03T13:20:18.300Z,2.40
2018-06-03T13:21:18.287Z,2.40
2018-06-03T13:22:18.300Z,2.70
2018-06-03T13:23:18.305Z,2.30
2018-06-03T13:24:18.330Z,2.30
2018-06-03T13:25:18.315Z,2.40
2018-06-03T13:26:18.314Z,2.50
2018-06-03T13:27:18.323Z,2.60
2018-06-03T13:28:18.326Z,2.60
2018-06-03T13:29:18.334Z,2.50
2018-06-03T13:30:18.334Z,2.20
2018-06-03T13:31:18.341Z,2.60
2018-06-03T13:32:18.347Z,2.60
2018-06-03T13:33:18.352Z,2.70
2018-06-03T13:34:18.356Z,2.50
2018-06-03T13:35:18.362Z,2.60
2018-06-03T13:36:18.367Z,2.60
2018-06-03T13:37:18.375Z,2.90
2018-06-03T13:38:18.379Z,2.40
2018-06-03T13:39:18.386Z,2.70
2018-06-03T13:40:18.396Z,3.20
2018-06-03T13:41:18.386Z,2.80
2018-06-03T13:42:18.397Z,2.80
2018-06-03T13:43:18.391Z,2.60
2018-06-03T13:44:18.405Z,2.70
2018-06-03T13:45:18.414Z,2.40
2018-06-03T13:46:18.423Z,2.40
2018-06-03T13:47:18.422Z,2.60
2018-06-03T13:48:18.425Z,2.50
2018-06-03T13:49:18.426Z,2.50
2018-06-03T13:50:18.434Z,2.80
2018-06-03T13:51:18.435Z,2.60
2018-06-03T13:52:18.444Z,2.50
2018-06-03T13:53:18.450Z,2.50
2018-06-03T13:54:18.451Z,2.40
2018-06-03T13:55:18.476Z,2.50
2018-06-03T13:56:18.470Z,2.40
2018-06-03T13:57:18.488Z,2.40
2018-06-03T13:58:18.470Z,2.60
2018-06-03T13:59:18.493Z,2.60
2018-06-03T14:00:18.475Z,2.40
2018-06-03T14:01:18.482Z,2.60
2018-06-03T14:02:18.481Z,2.30
2018-06-03T14:03:18.482Z,2.30
2018-06-03T14:04:18.493Z,2.60
2018-06-03T14:05:18.503Z,2.50
2018-06-03T14:06:18.511Z,2.40
2018-06-03T14:07:18.508Z,2.50
2018-06-03T14:08:18.512Z,2.40
2018-06-03T14:09:18.511Z,2.40
2018-06-03T14:10:18.517Z,2.40
2018-06-03T14:11:18.530Z,2.50
2018-06-03T14:12:18.541Z,2.70
2018-06-03T14:13:18.526Z,2.50
2018-06-03T14:14:18.534Z,2.50
2018-06-03T14:15:18.536Z,2.50
2018-06-03T14:16:18.543Z,2.50
2018-06-03T14:17:18.546Z,2.20
2018-06-03T14:18:18.551Z,2.60
2018-06-03T14:19:18.553Z,2.30
2018-06-03T14:20:18.544Z,2.40
2018-06-03T14:21:18.556Z,2.40
2018-06-03T14:22:18.566Z,2.10
2018-06-03T14:23:18.553Z,2.50
2018-06-03T14:24:18.570Z,2.40
2018-06-03T14:25:18.564Z,2.20
2018-06-03T14:26:18.593Z,2.60
2018-06-03T14:27:18.576Z,2.50
2018-06-03T14:28:18.582Z,2.50
2018-06-03T14:29:18.583Z,2.90
2018-06-03T14:30:18.605Z,2.40
2018-06-03T14:31:18.594Z,2.80
2018-06-03T14:32:18.599Z,2.80
2018-06-03T14:33:18.597Z,2.50
2018-06-03T14:34:18.603Z,2.40
2018-06-03T14:35:18.604Z,2.20
2018-06-03T14:36:18.608Z,2.10
2018-06-03T14:37:18.617Z,2.40
2018-06-03T14:38:18.620Z,2.30
2018-06-03T14:39:18.622Z,2.50
2018-06-03T14:40:18.611Z,2.50
2018-06-03T14:41:18.651Z,2.20
2018-06-03T14:42:18.626Z,2.50
2018-06-03T14:43:18.630Z,2.30
2018-06-03T14:44:18.635Z,2.40
2018-06-03T14:45:18.640Z,2.20
2018-06-03T14:46:18.654Z,2.60
2018-06-03T14:47:18.642Z,2.10
2018-06-03T14:48:18.652Z,2.10
2018-06-03T14:49:18.646Z,2.30
2018-06-03T14:50:18.649Z,2.40
2018-06-03T14:51:18.652Z,2.80
2018-06-03T14:52:18.655Z,2.10
2018-06-03T14:53:18.658Z,2.60
2018-06-03T14:54:18.663Z,2.10
2018-06-03T14:55:18.664Z,2.30
2018-06-03T14:56:18.668Z,2.20
2018-06-03T14:57:18.701Z,2.40
2018-06-03T14:58:18.684Z,2.20
2018-06-03T14:59:18.630Z,2.20
2018-06-03T15:00:18.645Z,2.40
2018-06-03T15:01:18.640Z,2.50
2018-06-03T15:02:18.639Z,2.20
2018-06-03T15:03:18.635Z,2.30
2018-06-03T15:04:18.639Z,2.10
2018-06-03T15:05:18.645Z,2.30
2018-06-03T15:06:18.647Z,2.00
2018-06-03T15:07:18.666Z,2.30
2018-06-03T15:08:18.651Z,2.10
2018-06-03T15:09:18.652Z,2.30
2018-06-03T15:10:18.652Z,2.00
2018-06-03T15:11:18.658Z,2.10
2018-06-03T15:12:18.663Z,2.40
2018-06-03T15:13:18.659Z,2.50
2018-06-03T15:14:18.667Z,2.50
2018-06-03T15:15:18.663Z,2.40
2018-06-03T15:16:18.665Z,2.30
2018-06-03T15:17:18.665Z,2.40
2018-06-03T15:18:18.672Z,2.10
2018-06-03T15:19:18.683Z,2.30
2018-06-03T15:20:18.710Z,2.40
2018-06-03T15:21:18.701Z,2.30
2018-06-03T15:22:18.709Z,2.30
2018-06-03T15:23:18.715Z,2.00
2018-06-03T15:24:18.738Z,2.10
2018-06-03T15:25:18.719Z,2.10
2018-06-03T15:26:18.750Z,2.30
2018-06-03T15:27:18.759Z,2.20
2018-06-03T15:28:18.831Z,2.20
2018-06-03T15:29:18.739Z,2.00
2018-06-03T15:30:18.761Z,2.30
2018-06-03T15:31:18.743Z,2.20
2018-06-03T15:32:18.747Z,2.20
2018-06-03T15:33:18.761Z,2.20
2018-06-03T15:34:18.755Z,2.20
2018-06-03T15:35:18.759Z,2.40
2018-06-03T15:36:18.762Z,2.10
2018-06-03T15:37:18.765Z,2.00
2018-06-03T15:38:18.800Z,2.40
2018-06-03T15:39:18.765Z,2.20
2018-06-03T15:40:18.785Z,2.30
2018-06-03T15:41:18.785Z,2.10
2018-06-03T15:42:18.778Z,2.30
2018-06-03T15:43:18.795Z,2.20
2018-06-03T15:44:18.793Z,2.30
2018-06-03T15:45:18.778Z,2.10
2018-06-03T15:46:18.788Z,2.10
2018-06-03T15:47:18.793Z,2.50
2018-06-03T15:48:18.794Z,2.30
2018-06-03T15:49:18.795Z,2.00
2018-06-03T15:50:18.797Z,2.20
2018-06-03T15:51:18.886Z,2.10
2018-06-03T15:52:18.802Z,2.30
2018-06-03T15:53:18.809Z,2.00
2018-06-03T15:54:18.815Z,2.10